Terminal Aerodrome Forecast
Issued by NWS Quad Cities IA IL

Home | Current Version | Previous Version | Text Only | Print | Product List | Glossary On
Versions: 1 2 3 4 5 6 7 8 9 10 11 12 13 14
216
FTUS43 KDVN 242219 AAA
TAFDBQ
TAF AMD
KDBQ 242219Z 2422/2518 27014G24KT P6SM VCSH BKN050
     FM250000 29007KT P6SM SKC
     FM251600 29012G20KT P6SM FEW050=

USA.gov is the U.S. government's official web portal to all federal, state and local government web resources and services.